createdAt,value
2022-09-24T00:01:34.501Z,20.17
2022-09-24T00:04:04.639Z,20.17
2022-09-24T00:06:37.721Z,20.17
2022-09-24T00:09:04.527Z,20.17
2022-09-24T00:11:32.009Z,20.16
2022-09-24T00:13:59.392Z,20.15
2022-09-24T00:16:30.379Z,20.13
2022-09-24T00:18:58.368Z,20.15
2022-09-24T00:21:28.042Z,20.13
2022-09-24T00:23:57.250Z,20.13
2022-09-24T00:26:42.648Z,20.15
2022-09-24T00:29:10.400Z,20.15
2022-09-24T00:31:37.161Z,20.16
2022-09-24T00:34:04.044Z,20.16
2022-09-24T00:36:30.940Z,20.17
2022-09-24T00:38:59.246Z,20.17
2022-09-24T00:41:29.401Z,20.18
2022-09-24T00:43:56.029Z,20.20
2022-09-24T00:46:34.249Z,20.19
2022-09-24T00:49:06.194Z,20.21
2022-09-24T00:51:33.632Z,20.23
2022-09-24T00:54:05.701Z,20.21
2022-09-24T00:56:36.488Z,20.22
2022-09-24T00:59:04.435Z,20.22
2022-09-24T01:01:30.832Z,20.24
2022-09-24T01:03:59.208Z,20.23
2022-09-24T01:06:26.188Z,20.24
2022-09-24T01:08:54.860Z,20.24
2022-09-24T01:11:36.339Z,20.25
2022-09-24T01:14:05.547Z,20.28
2022-09-24T01:17:02.895Z,20.26
2022-09-24T01:19:35.173Z,20.31
2022-09-24T01:22:26.455Z,20.31
2022-09-24T01:25:01.675Z,20.35
2022-09-24T01:27:49.533Z,20.35
2022-09-24T01:30:15.939Z,20.39
2022-09-24T01:32:49.505Z,20.37
2022-09-24T01:35:22.148Z,20.38
2022-09-24T01:38:01.193Z,20.35
2022-09-24T01:40:30.178Z,20.38
2022-09-24T01:42:59.066Z,20.39
2022-09-24T01:45:31.802Z,20.40
2022-09-24T01:48:01.208Z,20.41
2022-09-24T01:50:30.978Z,20.41
2022-09-24T01:53:31.750Z,20.39
2022-09-24T01:56:05.258Z,20.43
2022-09-24T01:58:58.667Z,20.41
2022-09-24T02:01:34.998Z,20.42
2022-09-24T02:04:09.155Z,20.43
2022-09-24T02:06:41.741Z,20.43
2022-09-24T02:09:38.408Z,20.40
2022-09-24T02:12:26.472Z,20.41
2022-09-24T02:15:02.877Z,20.42
2022-09-24T02:17:33.561Z,20.42
2022-09-24T02:20:02.785Z,20.42
2022-09-24T02:22:30.983Z,20.40
2022-09-24T02:25:00.662Z,20.40
2022-09-24T02:27:30.564Z,20.38
2022-09-24T02:29:58.730Z,20.36
2022-09-24T02:32:27.946Z,20.35
2022-09-24T02:35:01.247Z,20.33
2022-09-24T02:37:27.566Z,20.32
2022-09-24T02:39:53.875Z,20.34
2022-09-24T02:42:21.757Z,20.35
2022-09-24T02:44:48.333Z,20.36
2022-09-24T02:47:14.648Z,20.37
2022-09-24T02:49:40.986Z,20.39
2022-09-24T02:52:07.382Z,20.40
2022-09-24T02:54:34.234Z,20.42
2022-09-24T02:57:00.548Z,20.42
2022-09-24T02:59:26.837Z,20.42
2022-09-24T03:01:53.286Z,20.42
2022-09-24T03:04:19.734Z,20.42
2022-09-24T03:06:46.032Z,20.42
2022-09-24T03:09:13.094Z,20.43
2022-09-24T03:11:39.937Z,20.44
2022-09-24T03:14:06.366Z,20.44
2022-09-24T03:16:33.542Z,20.45
2022-09-24T03:19:00.189Z,20.45
2022-09-24T03:21:26.552Z,20.45
2022-09-24T03:23:52.853Z,20.46
2022-09-24T03:26:19.269Z,20.44
2022-09-24T03:28:45.879Z,20.45
2022-09-24T03:31:12.978Z,20.46
2022-09-24T03:33:41.687Z,20.45
2022-09-24T03:36:20.108Z,20.46
2022-09-24T03:38:46.879Z,20.52
2022-09-24T03:41:14.584Z,20.54
2022-09-24T03:43:41.449Z,20.51
2022-09-24T03:46:09.421Z,20.46
2022-09-24T03:48:37.138Z,20.45
2022-09-24T03:51:05.900Z,20.42
2022-09-24T03:53:33.023Z,20.41
2022-09-24T03:56:02.261Z,20.39
2022-09-24T03:58:31.140Z,20.39
2022-09-24T04:00:57.888Z,20.39
2022-09-24T04:03:24.992Z,20.38
2022-09-24T04:05:51.687Z,20.32
2022-09-24T04:08:19.781Z,20.29
2022-09-24T04:10:46.897Z,20.27
2022-09-24T04:13:13.703Z,20.22
2022-09-24T04:15:40.099Z,20.21
2022-09-24T04:18:06.780Z,20.17
2022-09-24T04:20:33.839Z,20.14
2022-09-24T04:23:01.094Z,20.13
2022-09-24T04:25:32.801Z,20.08
2022-09-24T04:28:01.669Z,20.06
2022-09-24T04:30:29.549Z,20.06
2022-09-24T04:32:56.596Z,20.04
2022-09-24T04:35:23.454Z,20.02
2022-09-24T04:37:50.208Z,19.99
2022-09-24T04:40:17.148Z,19.97
2022-09-24T04:42:47.245Z,19.96
2022-09-24T04:45:17.673Z,19.94
2022-09-24T04:47:44.521Z,19.92
2022-09-24T04:50:11.348Z,19.91
2022-09-24T04:52:38.838Z,19.88
2022-09-24T04:55:06.310Z,19.88
2022-09-24T04:57:34.957Z,19.87
2022-09-24T05:00:01.626Z,19.88
2022-09-24T05:02:28.005Z,19.90
2022-09-24T05:04:54.353Z,19.87
2022-09-24T05:07:20.664Z,19.85
2022-09-24T05:09:47.014Z,19.82
2022-09-24T05:12:14.110Z,19.80
2022-09-24T05:14:40.407Z,19.80
2022-09-24T05:17:06.758Z,19.76
2022-09-24T05:19:33.053Z,19.75
2022-09-24T05:21:59.342Z,19.72
2022-09-24T05:24:25.631Z,19.70
2022-09-24T05:27:10.308Z,19.67
2022-09-24T05:29:41.184Z,19.66
2022-09-24T05:32:13.270Z,19.65
2022-09-24T05:34:41.401Z,19.64
2022-09-24T05:37:07.808Z,19.63
2022-09-24T05:39:34.544Z,19.63
2022-09-24T05:42:04.112Z,19.62
2022-09-24T05:44:31.763Z,19.60
2022-09-24T05:46:58.150Z,19.59
2022-09-24T05:49:24.509Z,19.58
2022-09-24T05:51:51.477Z,19.57
2022-09-24T05:54:18.284Z,19.55
2022-09-24T05:56:45.516Z,19.54
2022-09-24T05:59:12.200Z,19.51
2022-09-24T06:01:40.130Z,19.50
2022-09-24T06:04:17.597Z,19.50
2022-09-24T06:06:44.119Z,19.48
2022-09-24T06:09:10.875Z,19.48
2022-09-24T06:11:40.745Z,19.48
2022-09-24T06:14:08.453Z,19.49
2022-09-24T06:16:35.077Z,19.49
2022-09-24T06:19:01.714Z,19.49
2022-09-24T06:21:28.266Z,19.52
2022-09-24T06:23:54.619Z,19.51
2022-09-24T06:26:21.264Z,19.52
2022-09-24T06:28:47.559Z,19.55
2022-09-24T06:31:13.945Z,19.56
2022-09-24T06:33:40.915Z,19.57
2022-09-24T06:36:07.562Z,19.59
2022-09-24T06:38:35.244Z,19.60
2022-09-24T06:41:03.659Z,19.60
2022-09-24T06:43:31.192Z,19.63
2022-09-24T06:45:58.791Z,19.64
2022-09-24T06:48:26.480Z,19.65
2022-09-24T06:50:53.502Z,19.68
2022-09-24T06:53:20.621Z,19.70
2022-09-24T06:55:47.152Z,19.73
2022-09-24T06:58:22.014Z,19.73
2022-09-24T07:00:53.826Z,19.77
2022-09-24T07:03:20.998Z,19.81
2022-09-24T07:05:47.349Z,19.84
2022-09-24T07:08:13.654Z,19.87
2022-09-24T07:10:50.752Z,19.88
2022-09-24T07:13:17.088Z,19.94
2022-09-24T07:15:44.329Z,19.97
2022-09-24T07:18:11.960Z,19.99
2022-09-24T07:20:38.448Z,20.05
2022-09-24T07:23:06.397Z,20.08
2022-09-24T07:25:33.465Z,20.11
2022-09-24T07:28:08.532Z,20.15
2022-09-24T07:30:36.456Z,20.20
2022-09-24T07:33:03.338Z,20.26
2022-09-24T07:35:30.056Z,20.30
2022-09-24T07:38:00.940Z,20.36
2022-09-24T07:40:28.212Z,20.43
2022-09-24T07:42:55.209Z,20.50
2022-09-24T07:45:23.018Z,20.58
2022-09-24T07:48:00.574Z,20.64
2022-09-24T07:50:28.202Z,20.73
2022-09-24T07:52:55.199Z,20.80
2022-09-24T07:55:22.191Z,20.86
2022-09-24T07:57:55.404Z,20.92
2022-09-24T08:00:23.359Z,20.99
2022-09-24T08:02:50.344Z,21.08
2022-09-24T08:05:17.928Z,21.14
2022-09-24T08:07:52.494Z,21.18
2022-09-24T08:10:19.281Z,21.25
2022-09-24T08:12:45.780Z,21.34
2022-09-24T08:15:12.091Z,21.37
2022-09-24T08:17:38.596Z,21.44
2022-09-24T08:20:05.470Z,21.51
2022-09-24T08:22:31.827Z,21.57
2022-09-24T08:24:58.134Z,21.63
2022-09-24T08:27:25.157Z,21.71
2022-09-24T08:29:52.079Z,21.78
2022-09-24T08:32:18.497Z,21.85
2022-09-24T08:34:45.286Z,21.91
2022-09-24T08:37:13.377Z,21.96
2022-09-24T08:39:40.091Z,22.03
2022-09-24T08:42:13.678Z,22.06
2022-09-24T08:45:02.647Z,22.13
2022-09-24T08:47:45.780Z,22.17
2022-09-24T08:50:24.741Z,22.22
2022-09-24T08:52:58.783Z,22.31
2022-09-24T08:55:38.070Z,22.33
2022-09-24T08:58:10.517Z,22.37
2022-09-24T09:00:46.273Z,22.40
2022-09-24T09:03:25.316Z,22.43
2022-09-24T09:06:33.000Z,22.47
2022-09-24T09:09:12.005Z,22.53
2022-09-24T09:11:40.577Z,22.57
2022-09-24T09:14:12.745Z,22.60
2022-09-24T09:17:02.761Z,22.64
2022-09-24T09:19:34.263Z,22.66
2022-09-24T09:22:17.305Z,22.67
2022-09-24T09:24:48.845Z,22.72
2022-09-24T09:27:17.162Z,22.75
2022-09-24T09:29:51.417Z,22.77
2022-09-24T09:32:40.832Z,22.78
2022-09-24T09:35:22.101Z,22.81
2022-09-24T09:38:23.344Z,22.81
2022-09-24T09:41:04.958Z,22.88
2022-09-24T09:43:31.317Z,22.89
2022-09-24T09:46:15.890Z,22.85
2022-09-24T09:48:51.303Z,22.88
2022-09-24T09:51:25.953Z,22.89
2022-09-24T09:54:00.390Z,22.92
2022-09-24T09:56:30.012Z,22.94
2022-09-24T09:59:11.513Z,22.94
2022-09-24T10:01:43.257Z,23.00
2022-09-24T10:04:34.500Z,23.02
2022-09-24T10:07:16.027Z,23.04
2022-09-24T10:09:43.812Z,23.11
2022-09-24T10:12:15.901Z,23.12
2022-09-24T10:14:42.862Z,23.16
2022-09-24T10:17:18.509Z,23.15
2022-09-24T10:19:50.651Z,23.16
2022-09-24T10:22:27.610Z,23.12
2022-09-24T10:24:59.715Z,23.12
2022-09-24T10:27:36.188Z,23.12
2022-09-24T10:30:31.224Z,23.14
2022-09-24T10:32:59.255Z,23.16
2022-09-24T10:35:28.805Z,23.18
2022-09-24T10:37:58.414Z,23.20
2022-09-24T10:40:30.715Z,23.23
2022-09-24T10:42:59.621Z,23.29
2022-09-24T10:46:05.078Z,23.31
2022-09-24T10:49:01.346Z,23.40
2022-09-24T10:51:48.530Z,23.46
2022-09-24T10:54:40.946Z,23.47
2022-09-24T10:57:34.065Z,23.52
2022-09-24T11:00:09.414Z,23.56
2022-09-24T11:03:08.542Z,23.59
2022-09-24T11:05:45.451Z,23.62
2022-09-24T11:08:23.185Z,23.64
2022-09-24T11:11:40.034Z,23.60
2022-09-24T11:14:35.721Z,23.59
2022-09-24T11:17:35.995Z,23.60
2022-09-24T11:20:22.262Z,23.59
2022-09-24T11:23:01.780Z,23.66
2022-09-24T11:25:39.531Z,23.66
2022-09-24T11:28:41.990Z,23.66
2022-09-24T11:31:30.867Z,23.68
2022-09-24T11:34:06.276Z,23.71
2022-09-24T11:36:55.653Z,23.70
2022-09-24T11:39:24.937Z,23.78
2022-09-24T11:42:09.971Z,23.81
2022-09-24T11:45:15.643Z,23.81
2022-09-24T11:47:41.862Z,23.88
2022-09-24T11:50:26.150Z,23.86
2022-09-24T11:53:14.017Z,23.89
2022-09-24T11:55:45.754Z,23.90
2022-09-24T11:58:30.770Z,23.90
2022-09-24T12:01:25.204Z,23.90
2022-09-24T12:04:30.883Z,23.94
2022-09-24T12:07:12.776Z,23.93
2022-09-24T12:09:45.100Z,23.92
2022-09-24T12:12:20.675Z,23.92
2022-09-24T12:15:05.034Z,23.88
2022-09-24T12:18:03.605Z,23.91
2022-09-24T12:20:31.875Z,23.90
2022-09-24T12:23:12.140Z,23.84
2022-09-24T12:25:45.318Z,23.83
2022-09-24T12:28:14.844Z,23.80
2022-09-24T12:31:09.978Z,23.78
2022-09-24T12:33:57.180Z,23.74
2022-09-24T12:36:57.161Z,23.73
2022-09-24T12:39:29.074Z,23.74
2022-09-24T12:42:01.604Z,23.73
2022-09-24T12:44:42.649Z,23.69
2022-09-24T12:47:24.349Z,23.66
2022-09-24T12:49:57.877Z,23.62
2022-09-24T12:52:39.841Z,23.56
2022-09-24T12:55:20.505Z,23.46
2022-09-24T12:57:56.106Z,23.37
2022-09-24T13:00:34.761Z,23.21
2022-09-24T13:03:02.930Z,23.09
2022-09-24T13:05:45.935Z,22.93
2022-09-24T13:08:16.785Z,22.82
2022-09-24T13:10:55.673Z,22.69
2022-09-24T13:13:27.964Z,22.60
2022-09-24T13:16:06.535Z,22.51
2022-09-24T13:18:37.226Z,22.45
2022-09-24T13:21:18.418Z,22.39
2022-09-24T13:23:47.508Z,22.35
2022-09-24T13:26:28.726Z,22.28
2022-09-24T13:28:58.505Z,22.27
2022-09-24T13:31:35.266Z,22.25
2022-09-24T13:34:12.900Z,22.23
2022-09-24T13:36:54.615Z,22.21
2022-09-24T13:39:44.126Z,22.20
2022-09-24T13:42:23.126Z,22.19
2022-09-24T13:44:52.925Z,22.20
2022-09-24T13:47:45.383Z,22.18
2022-09-24T13:50:24.096Z,22.21
2022-09-24T13:53:01.280Z,22.24
2022-09-24T13:55:38.149Z,22.27
2022-09-24T13:58:04.446Z,22.35
2022-09-24T14:00:32.269Z,22.37
2022-09-24T14:03:20.509Z,22.39
2022-09-24T14:05:47.055Z,22.48
2022-09-24T14:08:15.557Z,22.49
2022-09-24T14:10:42.590Z,22.50
2022-09-24T14:13:08.861Z,22.53
2022-09-24T14:15:36.230Z,22.53
2022-09-24T14:18:02.749Z,22.55
2022-09-24T14:20:35.051Z,22.55
2022-09-24T14:23:04.613Z,22.57
2022-09-24T14:25:34.932Z,22.57
2022-09-24T14:28:02.955Z,22.58
2022-09-24T14:30:32.393Z,22.59
2022-09-24T14:33:15.790Z,22.57
2022-09-24T14:35:46.933Z,22.62
2022-09-24T14:38:29.995Z,22.62
2022-09-24T14:41:05.913Z,22.66
2022-09-24T14:43:41.027Z,22.70
2022-09-24T14:46:18.928Z,22.68
2022-09-24T14:48:45.305Z,22.73
2022-09-24T14:51:26.730Z,22.70
2022-09-24T14:54:19.907Z,22.71
2022-09-24T14:56:46.319Z,22.78
2022-09-24T14:59:26.412Z,22.75
2022-09-24T15:02:15.743Z,22.75
2022-09-24T15:04:47.077Z,22.78
2022-09-24T15:07:21.357Z,22.77
2022-09-24T15:09:53.037Z,22.75
2022-09-24T15:12:26.443Z,22.75
2022-09-24T15:15:24.969Z,22.71
2022-09-24T15:17:51.297Z,22.72
2022-09-24T15:20:17.619Z,22.68
2022-09-24T15:22:46.497Z,22.65
2022-09-24T15:25:14.490Z,22.62
2022-09-24T15:27:44.395Z,22.61
2022-09-24T15:30:18.421Z,22.57
2022-09-24T15:32:45.067Z,22.55
2022-09-24T15:35:14.927Z,22.53
2022-09-24T15:37:41.925Z,22.52
2022-09-24T15:40:15.364Z,22.48
2022-09-24T15:42:41.693Z,22.50
2022-09-24T15:45:34.282Z,22.44
2022-09-24T15:48:00.692Z,22.47
2022-09-24T15:50:27.005Z,22.44
2022-09-24T15:52:57.221Z,22.42
2022-09-24T15:55:24.035Z,22.42
2022-09-24T15:57:50.401Z,22.40
2022-09-24T16:00:18.822Z,22.38
2022-09-24T16:02:50.953Z,22.35
2022-09-24T16:05:18.078Z,22.34
2022-09-24T16:07:44.714Z,22.32
2022-09-24T16:10:13.368Z,22.29
2022-09-24T16:12:39.801Z,22.29
2022-09-24T16:15:06.971Z,22.31
2022-09-24T16:17:33.323Z,22.28
2022-09-24T16:19:59.854Z,22.24
2022-09-24T16:22:26.209Z,22.21
2022-09-24T16:24:53.980Z,22.20
2022-09-24T16:27:20.551Z,22.17
2022-09-24T16:29:46.849Z,22.15
2022-09-24T16:32:13.805Z,22.14
2022-09-24T16:34:40.799Z,22.11
2022-09-24T16:37:08.021Z,22.10
2022-09-24T16:39:34.445Z,22.05
2022-09-24T16:42:01.171Z,22.02
2022-09-24T16:44:27.462Z,22.01
2022-09-24T16:46:53.907Z,21.98
2022-09-24T16:49:22.617Z,21.95
2022-09-24T16:51:48.819Z,21.95
2022-09-24T16:54:15.263Z,21.97
2022-09-24T16:56:41.620Z,21.92
2022-09-24T16:59:10.105Z,21.86
2022-09-24T17:01:36.547Z,21.86
2022-09-24T17:04:02.878Z,21.87
2022-09-24T17:06:30.950Z,21.81
2022-09-24T17:09:16.081Z,21.77
2022-09-24T17:11:42.633Z,21.73
2022-09-24T17:14:12.102Z,21.67
2022-09-24T17:16:39.385Z,21.63
2022-09-24T17:19:07.898Z,21.60
2022-09-24T17:21:35.586Z,21.56
2022-09-24T17:24:02.412Z,21.54
2022-09-24T17:26:28.839Z,21.51
2022-09-24T17:28:55.348Z,21.49
2022-09-24T17:31:24.199Z,21.47
2022-09-24T17:34:09.541Z,21.44
2022-09-24T17:36:37.124Z,21.45
2022-09-24T17:39:05.341Z,21.45
2022-09-24T17:41:31.670Z,21.44
2022-09-24T17:44:00.920Z,21.44
2022-09-24T17:46:29.931Z,21.42
2022-09-24T17:48:58.627Z,21.42
2022-09-24T17:51:26.226Z,21.44
2022-09-24T17:53:53.954Z,21.45
2022-09-24T17:56:22.972Z,21.42
2022-09-24T17:58:49.758Z,21.39
2022-09-24T18:01:19.439Z,21.36
2022-09-24T18:03:46.519Z,21.33
2022-09-24T18:06:14.718Z,21.29
2022-09-24T18:08:45.850Z,21.27
2022-09-24T18:11:15.494Z,21.26
2022-09-24T18:13:41.836Z,21.27
2022-09-24T18:16:09.791Z,21.27
2022-09-24T18:18:36.778Z,21.27
2022-09-24T18:21:08.096Z,21.25
2022-09-24T18:23:35.109Z,21.26
2022-09-24T18:26:10.457Z,21.22
2022-09-24T18:28:39.633Z,21.24
2022-09-24T18:31:08.345Z,21.22
2022-09-24T18:33:36.531Z,21.21
2022-09-24T18:36:04.664Z,21.20
2022-09-24T18:38:31.750Z,21.20
2022-09-24T18:40:59.418Z,21.18
2022-09-24T18:43:26.275Z,21.20
2022-09-24T18:45:52.682Z,21.18
2022-09-24T18:48:19.413Z,21.17
2022-09-24T18:50:45.838Z,21.15
2022-09-24T18:53:12.416Z,21.13
2022-09-24T18:55:40.612Z,21.11
2022-09-24T18:58:07.924Z,21.09
2022-09-24T19:00:54.724Z,21.08
2022-09-24T19:03:22.062Z,21.05
2022-09-24T19:05:51.461Z,21.03
2022-09-24T19:08:20.074Z,21.00
2022-09-24T19:10:48.427Z,20.99
2022-09-24T19:13:16.065Z,20.95
2022-09-24T19:15:43.228Z,20.94
2022-09-24T19:18:16.968Z,20.91
2022-09-24T19:20:45.583Z,20.90
2022-09-24T19:23:12.308Z,20.91
2022-09-24T19:25:40.241Z,20.92
2022-09-24T19:28:08.866Z,20.88
2022-09-24T19:30:44.696Z,20.88
2022-09-24T19:33:15.634Z,20.87
2022-09-24T19:35:47.100Z,20.82
2022-09-24T19:38:16.535Z,20.78
2022-09-24T19:40:43.057Z,20.76
2022-09-24T19:43:09.501Z,20.74
2022-09-24T19:45:37.157Z,20.72
2022-09-24T19:48:03.546Z,20.70
2022-09-24T19:50:34.177Z,20.70
2022-09-24T19:53:00.545Z,20.69
2022-09-24T19:55:28.783Z,20.69
2022-09-24T19:57:56.265Z,20.68
2022-09-24T20:00:24.893Z,20.66
2022-09-24T20:02:52.234Z,20.68
2022-09-24T20:05:18.597Z,20.72
2022-09-24T20:07:45.719Z,20.68
2022-09-24T20:10:12.047Z,20.64
2022-09-24T20:12:39.174Z,20.60
2022-09-24T20:15:06.556Z,20.58
2022-09-24T20:17:32.874Z,20.54
2022-09-24T20:20:00.957Z,20.52
2022-09-24T20:22:27.260Z,20.52
2022-09-24T20:24:53.570Z,20.50
2022-09-24T20:27:38.541Z,20.48
2022-09-24T20:30:05.307Z,20.45
2022-09-24T20:32:31.790Z,20.45
2022-09-24T20:35:01.016Z,20.43
2022-09-24T20:37:28.092Z,20.41
2022-09-24T20:39:54.446Z,20.38
2022-09-24T20:42:20.796Z,20.37
2022-09-24T20:44:48.822Z,20.36
2022-09-24T20:47:15.491Z,20.34
2022-09-24T20:49:41.846Z,20.34
2022-09-24T20:52:08.209Z,20.33
2022-09-24T20:54:34.604Z,20.32
2022-09-24T20:57:01.847Z,20.32
2022-09-24T20:59:28.160Z,20.32
2022-09-24T21:01:54.593Z,20.33
2022-09-24T21:04:21.104Z,20.32
2022-09-24T21:06:47.935Z,20.33
2022-09-24T21:09:14.625Z,20.33
2022-09-24T21:11:41.916Z,20.35
2022-09-24T21:14:10.846Z,20.35
2022-09-24T21:16:37.353Z,20.36
2022-09-24T21:19:05.617Z,20.37
2022-09-24T21:21:35.081Z,20.38
2022-09-24T21:24:01.803Z,20.38
2022-09-24T21:26:30.401Z,20.38
2022-09-24T21:29:22.860Z,20.41
2022-09-24T21:31:49.333Z,20.45
2022-09-24T21:34:17.503Z,20.43
2022-09-24T21:36:45.577Z,20.41
2022-09-24T21:39:17.528Z,20.40
2022-09-24T21:41:45.434Z,20.41
2022-09-24T21:44:14.340Z,20.40
2022-09-24T21:46:42.880Z,20.39
2022-09-24T21:49:09.897Z,20.41
2022-09-24T21:51:36.704Z,20.44
2022-09-24T21:54:06.483Z,20.41
2022-09-24T21:56:35.275Z,20.39
2022-09-24T21:59:02.106Z,20.38
2022-09-24T22:01:31.297Z,20.38
2022-09-24T22:03:59.356Z,20.36
2022-09-24T22:06:28.713Z,20.34
2022-09-24T22:08:57.842Z,20.32
2022-09-24T22:11:26.229Z,20.30
2022-09-24T22:13:53.406Z,20.28
2022-09-24T22:16:20.118Z,20.28
2022-09-24T22:18:46.459Z,20.28
2022-09-24T22:21:14.494Z,20.26
2022-09-24T22:23:41.380Z,20.27
2022-09-24T22:26:09.756Z,20.26
2022-09-24T22:28:37.773Z,20.26
2022-09-24T22:31:07.095Z,20.27
2022-09-24T22:33:52.379Z,20.27
2022-09-24T22:36:19.262Z,20.27
2022-09-24T22:38:45.855Z,20.27
2022-09-24T22:41:12.289Z,20.26
2022-09-24T22:43:39.626Z,20.25
2022-09-24T22:46:08.680Z,20.25
2022-09-24T22:48:35.695Z,20.25
2022-09-24T22:51:03.128Z,20.24
2022-09-24T22:53:32.494Z,20.24
2022-09-24T22:56:11.277Z,20.20
2022-09-24T22:58:41.123Z,20.23
2022-09-24T23:01:09.646Z,20.22
2022-09-24T23:03:36.530Z,20.23
2022-09-24T23:06:05.889Z,20.24
2022-09-24T23:08:33.681Z,20.23
2022-09-24T23:11:24.482Z,20.16
2022-09-24T23:13:54.778Z,20.16
2022-09-24T23:16:24.476Z,20.16
2022-09-24T23:18:53.733Z,20.13
2022-09-24T23:21:22.202Z,20.13
2022-09-24T23:23:53.851Z,20.11
2022-09-24T23:26:21.222Z,20.11
2022-09-24T23:28:50.941Z,20.10
2022-09-24T23:31:20.814Z,20.11
2022-09-24T23:33:48.117Z,20.10
2022-09-24T23:36:15.130Z,20.09
2022-09-24T23:38:42.352Z,20.09
2022-09-24T23:41:10.829Z,20.08
2022-09-24T23:43:37.262Z,20.07
2022-09-24T23:46:04.182Z,20.06
2022-09-24T23:48:31.438Z,20.06
2022-09-24T23:50:58.289Z,20.05
2022-09-24T23:53:25.732Z,20.04
2022-09-24T23:55:53.055Z,20.04
2022-09-24T23:58:20.659Z,20.04
